createdAt,value
2018-02-22T00:00:05.102Z,-2.2
2018-02-22T00:05:03.309Z,-2.2
2018-02-22T00:10:02.942Z,-2.2
2018-02-22T00:15:02.419Z,-2.5
2018-02-22T00:20:02.887Z,-2.5
2018-02-22T00:25:03.382Z,-2.5
2018-02-22T00:30:02.805Z,-2.2
2018-02-22T00:35:03.293Z,-2.5
2018-02-22T00:40:02.803Z,-2.5
2018-02-22T00:45:03.247Z,-2.5
2018-02-22T00:50:02.795Z,-2.5
2018-02-22T00:55:03.303Z,-2.5
2018-02-22T01:00:02.746Z,-2.5
2018-02-22T01:05:02.939Z,-2.5
2018-02-22T01:10:02.409Z,-2.5
2018-02-22T01:15:02.829Z,-2.5
2018-02-22T01:20:03.325Z,-2.5
2018-02-22T01:25:02.747Z,-2.5
2018-02-22T01:30:03.235Z,-2.7
2018-02-22T01:35:02.752Z,-2.5
2018-02-22T01:40:03.244Z,-2.7
2018-02-22T01:45:02.630Z,-2.7
2018-02-22T01:50:03.113Z,-2.7
2018-02-22T01:55:02.601Z,-2.7
2018-02-22T02:00:03.140Z,-2.7
2018-02-22T02:05:02.629Z,-2.7
2018-02-22T02:10:03.270Z,-2.7
2018-02-22T02:15:02.794Z,-2.9
2018-02-22T02:20:03.286Z,-2.9
2018-02-22T02:25:02.668Z,-2.9
2018-02-22T02:30:03.159Z,-2.9
2018-02-22T02:35:02.577Z,-2.9
2018-02-22T02:40:03.091Z,-2.9
2018-02-22T02:45:02.504Z,-2.9
2018-02-22T02:50:02.980Z,-2.9
2018-02-22T02:55:02.436Z,-3.0
2018-02-22T03:00:02.562Z,-2.9
2018-02-22T03:05:03.069Z,-2.9
2018-02-22T03:10:02.576Z,-3.0
2018-02-22T03:15:03.034Z,-3.0
2018-02-22T03:20:02.505Z,-2.9
2018-02-22T03:25:02.982Z,-3.0
2018-02-22T03:30:02.460Z,-3.0
2018-02-22T03:35:03.031Z,-3.0
2018-02-22T03:40:02.540Z,-3.0
2018-02-22T03:45:03.028Z,-3.0
2018-02-22T03:50:02.453Z,-3.0
2018-02-22T03:55:03.028Z,-3.0
2018-02-22T04:00:02.535Z,-3.0
2018-02-22T04:05:02.967Z,-3.0
2018-02-22T04:10:02.568Z,-2.9
2018-02-22T04:15:02.958Z,-3.0
2018-02-22T04:20:03.376Z,-3.0
2018-02-22T04:25:02.793Z,-3.0
2018-02-22T04:30:03.259Z,-3.0
2018-02-22T04:35:02.697Z,-3.2
2018-02-22T04:40:03.186Z,-3.0
2018-02-22T04:45:02.637Z,-3.0
2018-02-22T04:50:03.206Z,-3.2
2018-02-22T04:55:02.624Z,-3.2
2018-02-22T05:00:03.120Z,-3.2
2018-02-22T05:05:02.528Z,-3.2
2018-02-22T05:10:03.100Z,-3.2
2018-02-22T05:15:02.521Z,-3.2
2018-02-22T05:20:03.034Z,-3.2
2018-02-22T05:25:03.445Z,-3.5
2018-02-22T05:30:02.457Z,-3.5
2018-02-22T05:35:02.915Z,-3.5
2018-02-22T05:40:03.357Z,-3.2
2018-02-22T05:45:02.843Z,-3.5
2018-02-22T05:50:03.284Z,-3.5
2018-02-22T05:55:02.656Z,-3.5
2018-02-22T06:00:03.114Z,-3.5
2018-02-22T06:05:02.573Z,-3.5
2018-02-22T06:10:03.029Z,-3.7
2018-02-22T06:15:02.498Z,-3.5
2018-02-22T06:20:03.219Z,-3.5
2018-02-22T06:25:02.711Z,-3.5
2018-02-22T06:30:03.158Z,-3.5
2018-02-22T06:35:02.643Z,-3.2
2018-02-22T06:40:03.139Z,-3.5
2018-02-22T06:45:02.884Z,-3.2
2018-02-22T06:50:02.411Z,-3.2
2018-02-22T06:55:02.851Z,-3.2
2018-02-22T07:00:03.302Z,-3.5
2018-02-22T07:05:02.865Z,-3.2
2018-02-22T07:10:03.375Z,-3.2
2018-02-22T07:15:02.891Z,-3.2
2018-02-22T07:20:02.943Z,-3.0
2018-02-22T07:25:02.399Z,-3.0
2018-02-22T07:30:02.829Z,-2.9
2018-02-22T07:35:03.326Z,-2.7
2018-02-22T07:40:02.977Z,-2.7
2018-02-22T07:45:02.540Z,-2.5
2018-02-22T07:50:03.101Z,-2.5
2018-02-22T07:55:02.491Z,-2.2
2018-02-22T08:00:02.874Z,-2.0
2018-02-22T08:05:02.687Z,-2.0
2018-02-22T08:10:03.274Z,-1.8
2018-02-22T08:15:02.720Z,-1.7
2018-02-22T08:20:03.223Z,-1.5
2018-02-22T08:25:03.018Z,-1.1
2018-02-22T08:30:02.647Z,-0.5
2018-02-22T08:35:03.183Z,0.0
2018-02-22T08:40:02.720Z,0.3
2018-02-22T08:45:03.210Z,0.4
2018-02-22T08:50:02.693Z,0.7
2018-02-22T08:55:03.177Z,0.7
2018-02-22T09:00:02.651Z,1.2
2018-02-22T09:05:03.122Z,1.6
2018-02-22T09:10:02.579Z,1.7
2018-02-22T09:15:03.086Z,2.0
2018-02-22T09:20:02.579Z,3.0
2018-02-22T09:25:03.037Z,2.9
2018-02-22T09:30:02.504Z,3.2
2018-02-22T09:35:02.988Z,3.2
2018-02-22T09:40:02.454Z,3.7
2018-02-22T09:45:02.905Z,3.5
2018-02-22T09:50:02.429Z,3.7
2018-02-22T09:55:02.884Z,4.0
2018-02-22T10:00:03.308Z,4.3
2018-02-22T10:05:02.720Z,4.3
2018-02-22T10:10:03.167Z,4.5
2018-02-22T10:15:02.561Z,4.5
2018-02-22T10:20:03.173Z,4.0
2018-02-22T10:25:02.604Z,4.5
2018-02-22T10:30:03.036Z,5.4
2018-02-22T10:35:02.537Z,5.0
2018-02-22T10:40:03.234Z,5.3
2018-02-22T10:45:02.818Z,5.0
2018-02-22T10:50:03.431Z,5.3
2018-02-22T10:55:02.916Z,5.8
2018-02-22T11:00:02.398Z,5.5
2018-02-22T11:05:02.856Z,5.5
2018-02-22T11:10:03.399Z,5.8
2018-02-22T11:15:02.860Z,5.8
2018-02-22T11:20:03.288Z,5.3
2018-02-22T11:25:02.670Z,6.1
2018-02-22T11:30:03.110Z,6.4
2018-02-22T11:35:02.562Z,6.4
2018-02-22T11:40:03.061Z,6.6
2018-02-22T11:45:02.486Z,6.1
2018-02-22T11:50:02.936Z,6.1
2018-02-22T11:55:03.342Z,6.1
2018-02-22T12:00:02.808Z,6.5
2018-02-22T12:05:03.295Z,6.5
2018-02-22T12:10:02.746Z,5.4
2018-02-22T12:15:03.211Z,6.0
2018-02-22T12:20:02.719Z,5.9
2018-02-22T12:25:03.178Z,6.4
2018-02-22T12:30:02.729Z,6.6
2018-02-22T12:35:03.206Z,6.1
2018-02-22T12:40:02.684Z,6.6
2018-02-22T12:45:03.071Z,6.6
2018-02-22T12:50:02.552Z,6.4
2018-02-22T12:55:03.074Z,6.5
2018-02-22T13:00:02.706Z,5.4
2018-02-22T13:05:03.191Z,6.4
2018-02-22T13:10:02.695Z,6.1
2018-02-22T13:15:02.573Z,5.9
2018-02-22T13:20:03.096Z,6.6
2018-02-22T13:25:02.511Z,6.5
2018-02-22T13:30:03.352Z,5.4
2018-02-22T13:35:02.864Z,6.5
2018-02-22T13:40:02.422Z,6.6
2018-02-22T13:45:02.966Z,5.5
2018-02-22T13:50:02.460Z,5.8
2018-02-22T13:55:02.925Z,6.4
2018-02-22T14:00:02.464Z,6.5
2018-02-22T14:05:02.961Z,6.6
2018-02-22T14:10:02.493Z,5.9
2018-02-22T14:15:02.954Z,7.0
2018-02-22T14:20:02.486Z,7.1
2018-02-22T14:25:02.988Z,6.5
2018-02-22T14:30:02.577Z,5.9
2018-02-22T14:35:03.221Z,6.1
2018-02-22T14:40:02.743Z,6.4
2018-02-22T14:45:03.232Z,6.6
2018-02-22T14:50:02.762Z,6.9
2018-02-22T14:55:03.221Z,5.9
2018-02-22T15:00:02.704Z,5.9
2018-02-22T15:05:03.234Z,5.8
2018-02-22T15:10:02.741Z,5.8
2018-02-22T15:15:03.385Z,6.0
2018-02-22T15:20:02.923Z,6.0
2018-02-22T15:25:03.388Z,5.9
2018-02-22T15:30:02.813Z,6.0
2018-02-22T15:35:03.375Z,5.0
2018-02-22T15:40:02.841Z,5.5
2018-02-22T15:45:03.347Z,5.0
2018-02-22T15:50:02.718Z,5.0
2018-02-22T15:55:03.229Z,5.0
2018-02-22T16:00:02.770Z,4.8
2018-02-22T16:05:03.219Z,4.3
2018-02-22T16:10:02.783Z,4.3
2018-02-22T16:15:02.418Z,3.2
2018-02-22T16:20:02.992Z,3.0
2018-02-22T16:25:02.470Z,2.7
2018-02-22T16:30:02.922Z,2.7
2018-02-22T16:35:02.462Z,2.5
2018-02-22T16:40:03.308Z,2.2
2018-02-22T16:45:02.742Z,2.2
2018-02-22T16:50:03.304Z,2.0
2018-02-22T16:55:02.821Z,1.8
2018-02-22T17:00:03.326Z,1.7
2018-02-22T17:05:02.745Z,1.6
2018-02-22T17:10:02.375Z,1.6
2018-02-22T17:15:02.799Z,1.6
2018-02-22T17:20:03.257Z,1.2
2018-02-22T17:25:02.686Z,1.1
2018-02-22T17:30:03.301Z,1.1
2018-02-22T17:35:02.789Z,1.2
2018-02-22T17:40:03.361Z,1.1
2018-02-22T17:45:02.802Z,0.7
2018-02-22T17:50:03.292Z,0.6
2018-02-22T17:55:02.758Z,0.4
2018-02-22T18:00:03.248Z,0.4
2018-02-22T18:05:02.723Z,0.4
2018-02-22T18:10:03.265Z,0.4
2018-02-22T18:15:02.742Z,0.4
2018-02-22T18:20:03.473Z,0.4
2018-02-22T18:25:02.945Z,0.3
2018-02-22T18:30:02.372Z,0.3
2018-02-22T18:35:02.836Z,0.1
2018-02-22T18:40:02.424Z,0.1
2018-02-22T18:45:03.045Z,0.0
2018-02-22T18:50:02.620Z,0.0
2018-02-22T18:55:03.123Z,0.0
2018-02-22T19:00:02.607Z,-0.3
2018-02-22T19:05:03.041Z,0.0
2018-02-22T19:10:02.599Z,0.0
2018-02-22T19:15:03.077Z,-0.3
2018-02-22T19:20:02.617Z,-0.5
2018-02-22T19:25:03.112Z,-0.5
2018-02-22T19:30:02.644Z,-0.3
2018-02-22T19:35:03.235Z,-0.3
2018-02-22T19:40:02.816Z,-0.5
2018-02-22T19:45:03.350Z,-0.5
2018-02-22T19:50:02.753Z,-0.5
2018-02-22T19:55:03.388Z,-0.5
2018-02-22T20:00:02.826Z,-0.6
2018-02-22T20:05:03.611Z,-0.6
2018-02-22T20:10:03.158Z,-0.8
2018-02-22T20:15:02.681Z,-0.8
2018-02-22T20:20:03.211Z,-1.1
2018-02-22T20:25:02.759Z,-1.1
2018-02-22T20:30:03.278Z,-1.2
2018-02-22T20:35:02.831Z,-1.1
2018-02-22T20:40:02.476Z,-1.2
2018-02-22T20:45:02.998Z,-1.5
2018-02-22T20:50:02.725Z,-1.5
2018-02-22T20:55:03.211Z,-1.5
2018-02-22T21:00:02.748Z,-1.2
2018-02-22T21:05:03.248Z,-1.5
2018-02-22T21:10:02.751Z,-1.5
2018-02-22T21:15:03.180Z,-1.5
2018-02-22T21:20:02.732Z,-1.5
2018-02-22T21:25:03.355Z,-1.5
2018-02-22T21:30:02.766Z,-1.5
2018-02-22T21:35:03.240Z,-1.5
2018-02-22T21:40:02.758Z,-1.7
2018-02-22T21:45:02.749Z,-1.8
2018-02-22T21:50:03.407Z,-1.8
2018-02-22T21:55:02.795Z,-1.7
2018-02-22T22:00:03.358Z,-1.7
2018-02-22T22:05:02.797Z,-1.7
2018-02-22T22:10:02.414Z,-1.7
2018-02-22T22:15:02.857Z,-1.7
2018-02-22T22:20:03.353Z,-2.0
2018-02-22T22:25:02.838Z,-1.8
2018-02-22T22:30:02.400Z,-1.8
2018-02-22T22:35:02.886Z,-1.8
2018-02-22T22:40:02.468Z,-2.0
2018-02-22T22:45:02.856Z,-1.8
2018-02-22T22:50:03.313Z,-1.8
2018-02-22T22:55:02.705Z,-1.8
2018-02-22T23:00:03.150Z,-2.0
2018-02-22T23:05:03.310Z,-2.0
2018-02-22T23:10:02.832Z,-2.0
2018-02-22T23:15:02.389Z,-2.0
2018-02-22T23:20:03.051Z,-2.0
2018-02-22T23:25:02.464Z,-2.2
2018-02-22T23:30:02.624Z,-2.2
2018-02-22T23:35:03.130Z,-2.2
2018-02-22T23:40:02.711Z,-2.0
2018-02-22T23:45:03.426Z,-2.0
2018-02-22T23:50:02.887Z,-2.2
2018-02-22T23:55:03.318Z,-2.2
